Hanjin Aqua — 3FIG — position and weather

sailwx.info

Track history (hours):
 
Tides and Currents Weather Stations Pressure Air Temp Water Temp Dewpoint Dewpoint Depression Visibility Wind Speed Wind Dir Waves Ship Positions

Hanjin Aqua

Last reported at 2018-Jun-16 04:28 UTC. Time now 2018-Jun-22 20:19 UTC.
Position S 33°48' E 017°55'.

Length 249 m; draft 12.6 m.

Type: Ship (hazmat cat A). MMSI: 372817000.

Date/timePositionNaut miles runAvg speedWind from/ knotsBaromVisibWave heightAir tempDewpointWater temp
2018-Jun-16 04:28S 33°48' E 017°55'612.2
2018-Jun-16 03:58S 33°53' E 017°58'612.2
2018-Jun-16 03:30S 33°58' E 018°02'612.2
2018-Jun-16 03:00S 34°03' E 018°06'611.9
2018-Jun-16 02:30S 34°08' E 018°09'612.0
2018-Jun-16 02:00S 34°13' E 018°13'612.1
2018-Jun-16 01:29S 34°19' E 018°17'611.9
2018-Jun-16 01:00S 34°24' E 018°20'510.1
2018-Jun-16 00:30S 34°28' E 018°24'4 9.1
2018-Jun-16 00:00S 34°29' E 018°29'5 9.1
2018-Jun-15 23:30S 34°31' E 018°34'5 9.2
2018-Jun-15 23:00S 34°33' E 018°39'5 9.3
2018-Jun-15 22:30S 34°35' E 018°45'5 9.2
2018-Jun-15 22:00S 34°36' E 018°50'5 9.2
2018-Jun-15 21:29S 34°38' E 018°55'4 8.8
2018-Jun-15 21:00S 34°40' E 019°00'5 8.9
2018-Jun-15 20:30S 34°41' E 019°05'  
2018-Jun-13 06:37S 30°25' E 030°50'213.3
2018-Jun-13 06:30S 30°23' E 030°51'612.7
2018-Jun-13 06:01S 30°18' E 030°55'612.0
2018-Jun-13 05:31S 30°13' E 030°59'611.4
2018-Jun-13 05:01S 30°08' E 031°02'611.1
2018-Jun-13 04:30S 30°04' E 031°06'510.3
2018-Jun-13 04:00S 29°59' E 031°08'510.6
2018-Jun-13 03:30S 29°54' E 031°08'4 7.7
2018-Jun-13 03:00S 29°52' E 031°03'2 3.1
2018-Jun-13 02:30S 29°53' E 031°02'0 0.1
2018-Jun-13 02:00S 29°53' E 031°02'0 0.0
2018-Jun-13 01:30S 29°53' E 031°02'0 0.0
2018-Jun-13 01:00S 29°53' E 031°02'0 0.0
2018-Jun-13 00:30S 29°53' E 031°02'0 0.0
2018-Jun-13 00:00S 29°53' E 031°02'0 0.0
2018-Jun-12 23:27S 29°53' E 031°02'0 0.0
2018-Jun-12 23:00S 29°53' E 031°02'0 0.0
2018-Jun-12 22:30S 29°53' E 031°02'0 0.0
2018-Jun-12 21:57S 29°53' E 031°02'0 0.0
2018-Jun-12 21:30S 29°53' E 031°02'0 0.0
2018-Jun-12 21:00S 29°53' E 031°02'0 0.0
2018-Jun-12 20:30S 29°53' E 031°02'0 0.0
2018-Jun-12 20:00S 29°53' E 031°02'0 0.0
2018-Jun-12 19:30S 29°53' E 031°02'0 0.0
2018-Jun-12 19:00S 29°53' E 031°02'0 0.0
2018-Jun-12 18:30S 29°53' E 031°02'0 0.0
2018-Jun-12 18:00S 29°53' E 031°02'0 0.0
2018-Jun-12 17:30S 29°53' E 031°02'0 0.0
2018-Jun-12 17:00S 29°53' E 031°02'0 0.0
2018-Jun-12 16:30S 29°53' E 031°02'0 0.0
2018-Jun-12 16:00S 29°53' E 031°02'0 0.0
2018-Jun-12 15:30S 29°53' E 031°02'0 0.0
2018-Jun-12 15:00S 29°53' E 031°02'0 0.0
2018-Jun-12 14:30S 29°53' E 031°02'0 0.0
2018-Jun-12 14:00S 29°53' E 031°02'0 0.0
2018-Jun-12 13:30S 29°53' E 031°02'0 0.0
2018-Jun-12 13:00S 29°53' E 031°02'0 0.0
2018-Jun-12 12:30S 29°53' E 031°02'0 0.0
2018-Jun-12 12:00S 29°53' E 031°02'0 0.0
2018-Jun-12 11:30S 29°53' E 031°02'0 0.0
2018-Jun-12 11:00S 29°53' E 031°02'0 0.0
2018-Jun-12 10:30S 29°53' E 031°02'0 0.0
2018-Jun-12 10:00S 29°53' E 031°02'0 0.0
2018-Jun-12 09:30S 29°53' E 031°02'0 0.0
2018-Jun-12 09:00S 29°53' E 031°02'0 0.0
2018-Jun-12 08:30S 29°53' E 031°02'0 0.0
2018-Jun-12 08:00S 29°53' E 031°02'0 0.0
2018-Jun-12 07:27S 29°53' E 031°02'0 0.0
2018-Jun-12 07:00S 29°53' E 031°02'0 0.0
2018-Jun-12 06:27S 29°53' E 031°02'0 0.0
2018-Jun-12 06:00S 29°53' E 031°02'0 0.0
2018-Jun-12 05:30S 29°53' E 031°02'0 0.0
2018-Jun-12 05:00S 29°53' E 031°02'0 0.0
2018-Jun-12 04:30S 29°53' E 031°02'0 0.0
2018-Jun-12 03:58S 29°53' E 031°02'0 0.0
2018-Jun-12 03:30S 29°53' E 031°02'0 0.0
2018-Jun-12 02:59S 29°53' E 031°02'0 0.0
2018-Jun-12 02:30S 29°53' E 031°02'2 3.9
2018-Jun-12 02:00S 29°52' E 031°04'5 9.4
2018-Jun-12 01:30S 29°49' E 031°07'612.2
2018-Jun-12 01:00S 29°47' E 031°14'4 7.8
2018-Jun-12 00:30S 29°45' E 031°18'1 1.4
2018-Jun-12 00:00S 29°46' E 031°18'1 2.6
2018-Jun-11 23:30S 29°46' E 031°19'611.3
2018-Jun-11 23:00S 29°44' E 031°25'714.3
2018-Jun-11 22:30S 29°42' E 031°33'816.1
2018-Jun-11 22:00S 29°40' E 031°42'917.2
2018-Jun-11 21:30S 29°38' E 031°51'917.2
2018-Jun-11 21:00S 29°35' E 032°01'  
Track history (hours):
 
Tides and Currents Weather Stations Pressure Air Temp Water Temp Dewpoint Dewpoint Depression Visibility Wind Speed Wind Dir Waves Ship Positions

Hanjin Aqua

Last reported at 2018-Jun-16 04:28 UTC. Time now 2018-Jun-22 20:19 UTC.
Position S 33°48' E 017°55'.

Length 249 m; draft 12.6 m.

Type: Ship (hazmat cat A). MMSI: 372817000.

Date/timePositionNaut miles runAvg speedWind from/ knotsBaromVisibWave heightAir tempDewpointWater temp
2018-Jun-16 04:28S 33°48' E 017°55'612.2
2018-Jun-16 03:58S 33°53' E 017°58'612.2
2018-Jun-16 03:30S 33°58' E 018°02'612.2
2018-Jun-16 03:00S 34°03' E 018°06'611.9
2018-Jun-16 02:30S 34°08' E 018°09'612.0
2018-Jun-16 02:00S 34°13' E 018°13'612.1
2018-Jun-16 01:29S 34°19' E 018°17'611.9
2018-Jun-16 01:00S 34°24' E 018°20'510.1
2018-Jun-16 00:30S 34°28' E 018°24'4 9.1
2018-Jun-16 00:00S 34°29' E 018°29'5 9.1
2018-Jun-15 23:30S 34°31' E 018°34'5 9.2
2018-Jun-15 23:00S 34°33' E 018°39'5 9.3
2018-Jun-15 22:30S 34°35' E 018°45'5 9.2
2018-Jun-15 22:00S 34°36' E 018°50'5 9.2
2018-Jun-15 21:29S 34°38' E 018°55'4 8.8
2018-Jun-15 21:00S 34°40' E 019°00'5 8.9
2018-Jun-15 20:30S 34°41' E 019°05'  
2018-Jun-13 06:37S 30°25' E 030°50'213.3
2018-Jun-13 06:30S 30°23' E 030°51'612.7
2018-Jun-13 06:01S 30°18' E 030°55'612.0
2018-Jun-13 05:31S 30°13' E 030°59'611.4
2018-Jun-13 05:01S 30°08' E 031°02'611.1
2018-Jun-13 04:30S 30°04' E 031°06'510.3
2018-Jun-13 04:00S 29°59' E 031°08'510.6
2018-Jun-13 03:30S 29°54' E 031°08'4 7.7
2018-Jun-13 03:00S 29°52' E 031°03'2 3.1
2018-Jun-13 02:30S 29°53' E 031°02'0 0.1
2018-Jun-13 02:00S 29°53' E 031°02'0 0.0
2018-Jun-13 01:30S 29°53' E 031°02'0 0.0
2018-Jun-13 01:00S 29°53' E 031°02'0 0.0
2018-Jun-13 00:30S 29°53' E 031°02'0 0.0
2018-Jun-13 00:00S 29°53' E 031°02'0 0.0
2018-Jun-12 23:27S 29°53' E 031°02'0 0.0
2018-Jun-12 23:00S 29°53' E 031°02'0 0.0
2018-Jun-12 22:30S 29°53' E 031°02'0 0.0
2018-Jun-12 21:57S 29°53' E 031°02'0 0.0
2018-Jun-12 21:30S 29°53' E 031°02'0 0.0
2018-Jun-12 21:00S 29°53' E 031°02'0 0.0
2018-Jun-12 20:30S 29°53' E 031°02'0 0.0
2018-Jun-12 20:00S 29°53' E 031°02'0 0.0
2018-Jun-12 19:30S 29°53' E 031°02'0 0.0
2018-Jun-12 19:00S 29°53' E 031°02'0 0.0
2018-Jun-12 18:30S 29°53' E 031°02'0 0.0
2018-Jun-12 18:00S 29°53' E 031°02'0 0.0
2018-Jun-12 17:30S 29°53' E 031°02'0 0.0
2018-Jun-12 17:00S 29°53' E 031°02'0 0.0
2018-Jun-12 16:30S 29°53' E 031°02'0 0.0
2018-Jun-12 16:00S 29°53' E 031°02'0 0.0
2018-Jun-12 15:30S 29°53' E 031°02'0 0.0
2018-Jun-12 15:00S 29°53' E 031°02'0 0.0
2018-Jun-12 14:30S 29°53' E 031°02'0 0.0
2018-Jun-12 14:00S 29°53' E 031°02'0 0.0
2018-Jun-12 13:30S 29°53' E 031°02'0 0.0
2018-Jun-12 13:00S 29°53' E 031°02'0 0.0
2018-Jun-12 12:30S 29°53' E 031°02'0 0.0
2018-Jun-12 12:00S 29°53' E 031°02'0 0.0
2018-Jun-12 11:30S 29°53' E 031°02'0 0.0
2018-Jun-12 11:00S 29°53' E 031°02'0 0.0
2018-Jun-12 10:30S 29°53' E 031°02'0 0.0
2018-Jun-12 10:00S 29°53' E 031°02'0 0.0
2018-Jun-12 09:30S 29°53' E 031°02'0 0.0
2018-Jun-12 09:00S 29°53' E 031°02'0 0.0
2018-Jun-12 08:30S 29°53' E 031°02'0 0.0
2018-Jun-12 08:00S 29°53' E 031°02'0 0.0
2018-Jun-12 07:27S 29°53' E 031°02'0 0.0
2018-Jun-12 07:00S 29°53' E 031°02'0 0.0
2018-Jun-12 06:27S 29°53' E 031°02'0 0.0
2018-Jun-12 06:00S 29°53' E 031°02'0 0.0
2018-Jun-12 05:30S 29°53' E 031°02'0 0.0
2018-Jun-12 05:00S 29°53' E 031°02'0 0.0
2018-Jun-12 04:30S 29°53' E 031°02'0 0.0
2018-Jun-12 03:58S 29°53' E 031°02'0 0.0
2018-Jun-12 03:30S 29°53' E 031°02'0 0.0
2018-Jun-12 02:59S 29°53' E 031°02'0 0.0
2018-Jun-12 02:30S 29°53' E 031°02'2 3.9
2018-Jun-12 02:00S 29°52' E 031°04'5 9.4
2018-Jun-12 01:30S 29°49' E 031°07'612.2
2018-Jun-12 01:00S 29°47' E 031°14'4 7.8
2018-Jun-12 00:30S 29°45' E 031°18'1 1.4
2018-Jun-12 00:00S 29°46' E 031°18'1 2.6
2018-Jun-11 23:30S 29°46' E 031°19'611.3
2018-Jun-11 23:00S 29°44' E 031°25'714.3
2018-Jun-11 22:30S 29°42' E 031°33'816.1
2018-Jun-11 22:00S 29°40' E 031°42'917.2
2018-Jun-11 21:30S 29°38' E 031°51'917.2
2018-Jun-11 21:00S 29°35' E 032°01'  

Dump ship's entire track history